sensor_id;sensor_type;location;lat;lon;timestamp;pressure;altitude;pressure_sealevel;temperature
58929;BMP180;44713;53.378;10.022;2023-04-28T00:01:18;101589.00;;;5.10
58929;BMP180;44713;53.378;10.022;2023-04-28T00:03:43;101596.00;;;5.10
58929;BMP180;44713;53.378;10.022;2023-04-28T00:06:09;101587.00;;;5.00
58929;BMP180;44713;53.378;10.022;2023-04-28T00:08:35;101582.00;;;5.00
58929;BMP180;44713;53.378;10.022;2023-04-28T00:11:00;101571.00;;;4.90
58929;BMP180;44713;53.378;10.022;2023-04-28T00:13:26;101574.00;;;4.90
58929;BMP180;44713;53.378;10.022;2023-04-28T00:15:52;101571.00;;;4.90
58929;BMP180;44713;53.378;10.022;2023-04-28T00:18:18;101571.00;;;4.80
58929;BMP180;44713;53.378;10.022;2023-04-28T00:20:43;101569.00;;;4.80
58929;BMP180;44713;53.378;10.022;2023-04-28T00:23:09;101571.00;;;4.70
58929;BMP180;44713;53.378;10.022;2023-04-28T00:25:34;101568.00;;;4.60
58929;BMP180;44713;53.378;10.022;2023-04-28T00:28:00;101569.00;;;4.60
58929;BMP180;44713;53.378;10.022;2023-04-28T00:30:29;101563.00;;;4.50
58929;BMP180;44713;53.378;10.022;2023-04-28T00:32:54;101559.00;;;4.50
58929;BMP180;44713;53.378;10.022;2023-04-28T00:35:20;101563.00;;;4.50
58929;BMP180;44713;53.378;10.022;2023-04-28T00:37:45;101561.00;;;4.40
58929;BMP180;44713;53.378;10.022;2023-04-28T00:40:11;101549.00;;;4.40
58929;BMP180;44713;53.378;10.022;2023-04-28T00:42:36;101559.00;;;4.40
58929;BMP180;44713;53.378;10.022;2023-04-28T00:45:02;101548.00;;;4.40
58929;BMP180;44713;53.378;10.022;2023-04-28T00:47:32;101544.00;;;4.40
58929;BMP180;44713;53.378;10.022;2023-04-28T00:49:58;101544.00;;;4.40
58929;BMP180;44713;53.378;10.022;2023-04-28T00:52:25;101539.00;;;4.30
58929;BMP180;44713;53.378;10.022;2023-04-28T00:54:50;101532.00;;;4.30
58929;BMP180;44713;53.378;10.022;2023-04-28T00:57:15;101526.00;;;4.30
58929;BMP180;44713;53.378;10.022;2023-04-28T00:59:41;101528.00;;;4.30
58929;BMP180;44713;53.378;10.022;2023-04-28T01:02:06;101529.00;;;4.30
58929;BMP180;44713;53.378;10.022;2023-04-28T01:04:32;101521.00;;;4.30
58929;BMP180;44713;53.378;10.022;2023-04-28T01:06:59;101530.00;;;4.30
58929;BMP180;44713;53.378;10.022;2023-04-28T01:09:25;101526.00;;;4.20
58929;BMP180;44713;53.378;10.022;2023-04-28T01:11:52;101523.00;;;4.10
58929;BMP180;44713;53.378;10.022;2023-04-28T01:14:30;101535.00;;;4.00
58929;BMP180;44713;53.378;10.022;2023-04-28T01:16:56;101522.00;;;4.00
58929;BMP180;44713;53.378;10.022;2023-04-28T01:19:22;101524.00;;;3.90
58929;BMP180;44713;53.378;10.022;2023-04-28T01:21:49;101516.00;;;3.80
58929;BMP180;44713;53.378;10.022;2023-04-28T01:24:19;101509.00;;;3.80
58929;BMP180;44713;53.378;10.022;2023-04-28T01:26:45;101513.00;;;3.80
58929;BMP180;44713;53.378;10.022;2023-04-28T01:29:11;101514.00;;;3.80
58929;BMP180;44713;53.378;10.022;2023-04-28T01:31:36;101507.00;;;3.80
58929;BMP180;44713;53.378;10.022;2023-04-28T01:34:01;101506.00;;;3.90
58929;BMP180;44713;53.378;10.022;2023-04-28T01:36:27;101506.00;;;3.90
58929;BMP180;44713;53.378;10.022;2023-04-28T01:38:53;101506.00;;;3.80
58929;BMP180;44713;53.378;10.022;2023-04-28T01:41:20;101504.00;;;3.70
58929;BMP180;44713;53.378;10.022;2023-04-28T01:43:46;101509.00;;;3.70
58929;BMP180;44713;53.378;10.022;2023-04-28T01:46:11;101515.00;;;3.70
58929;BMP180;44713;53.378;10.022;2023-04-28T01:48:37;101506.00;;;3.70
58929;BMP180;44713;53.378;10.022;2023-04-28T01:51:02;101509.00;;;3.60
58929;BMP180;44713;53.378;10.022;2023-04-28T01:53:29;101500.00;;;3.60
58929;BMP180;44713;53.378;10.022;2023-04-28T01:55:54;101507.00;;;3.50
58929;BMP180;44713;53.378;10.022;2023-04-28T01:58:20;101505.00;;;3.50
58929;BMP180;44713;53.378;10.022;2023-04-28T02:00:46;101501.00;;;3.50
58929;BMP180;44713;53.378;10.022;2023-04-28T02:03:12;101502.00;;;3.50
58929;BMP180;44713;53.378;10.022;2023-04-28T02:05:37;101501.00;;;3.50
58929;BMP180;44713;53.378;10.022;2023-04-28T02:08:03;101493.00;;;3.50
58929;BMP180;44713;53.378;10.022;2023-04-28T02:10:28;101487.00;;;3.60
58929;BMP180;44713;53.378;10.022;2023-04-28T02:12:54;101490.00;;;3.60
58929;BMP180;44713;53.378;10.022;2023-04-28T02:15:19;101488.00;;;3.60
58929;BMP180;44713;53.378;10.022;2023-04-28T02:17:45;101485.00;;;3.50
58929;BMP180;44713;53.378;10.022;2023-04-28T02:20:11;101488.00;;;3.50
58929;BMP180;44713;53.378;10.022;2023-04-28T02:22:36;101484.00;;;3.50
58929;BMP180;44713;53.378;10.022;2023-04-28T02:25:02;101475.00;;;3.50
58929;BMP180;44713;53.378;10.022;2023-04-28T02:27:31;101488.00;;;3.30
58929;BMP180;44713;53.378;10.022;2023-04-28T02:29:57;101480.00;;;3.40
58929;BMP180;44713;53.378;10.022;2023-04-28T02:32:22;101472.00;;;3.40
58929;BMP180;44713;53.378;10.022;2023-04-28T02:34:53;101473.00;;;3.40
58929;BMP180;44713;53.378;10.022;2023-04-28T02:37:21;101479.00;;;3.40
58929;BMP180;44713;53.378;10.022;2023-04-28T02:39:47;101464.00;;;3.40
58929;BMP180;44713;53.378;10.022;2023-04-28T02:42:13;101463.00;;;3.30
58929;BMP180;44713;53.378;10.022;2023-04-28T02:44:38;101456.00;;;3.20
58929;BMP180;44713;53.378;10.022;2023-04-28T02:47:04;101460.00;;;3.20
58929;BMP180;44713;53.378;10.022;2023-04-28T02:49:29;101455.00;;;3.20
58929;BMP180;44713;53.378;10.022;2023-04-28T02:51:55;101449.00;;;3.20
58929;BMP180;44713;53.378;10.022;2023-04-28T02:54:20;101444.00;;;3.20
58929;BMP180;44713;53.378;10.022;2023-04-28T02:56:55;101442.00;;;3.10
58929;BMP180;44713;53.378;10.022;2023-04-28T02:59:22;101437.00;;;2.90
58929;BMP180;44713;53.378;10.022;2023-04-28T03:01:48;101433.00;;;2.90
58929;BMP180;44713;53.378;10.022;2023-04-28T03:04:14;101431.00;;;2.90
58929;BMP180;44713;53.378;10.022;2023-04-28T03:06:40;101434.00;;;2.80
58929;BMP180;44713;53.378;10.022;2023-04-28T03:09:07;101428.00;;;2.80
58929;BMP180;44713;53.378;10.022;2023-04-28T03:11:33;101423.00;;;2.70
58929;BMP180;44713;53.378;10.022;2023-04-28T03:13:58;101419.00;;;2.70
58929;BMP180;44713;53.378;10.022;2023-04-28T03:16:24;101412.00;;;2.70
58929;BMP180;44713;53.378;10.022;2023-04-28T03:18:49;101416.00;;;2.60
58929;BMP180;44713;53.378;10.022;2023-04-28T03:21:15;101410.00;;;2.60
58929;BMP180;44713;53.378;10.022;2023-04-28T03:23:40;101405.00;;;2.60
58929;BMP180;44713;53.378;10.022;2023-04-28T03:26:05;101396.00;;;2.60
58929;BMP180;44713;53.378;10.022;2023-04-28T03:28:31;101403.00;;;2.60
58929;BMP180;44713;53.378;10.022;2023-04-28T03:30:58;101397.00;;;2.60
58929;BMP180;44713;53.378;10.022;2023-04-28T03:33:23;101398.00;;;2.50
58929;BMP180;44713;53.378;10.022;2023-04-28T03:35:50;101404.00;;;2.40
58929;BMP180;44713;53.378;10.022;2023-04-28T03:38:16;101409.00;;;2.40
58929;BMP180;44713;53.378;10.022;2023-04-28T03:40:41;101395.00;;;2.40
58929;BMP180;44713;53.378;10.022;2023-04-28T03:43:09;101380.00;;;2.40
58929;BMP180;44713;53.378;10.022;2023-04-28T03:45:40;101388.00;;;2.50
58929;BMP180;44713;53.378;10.022;2023-04-28T03:48:06;101382.00;;;2.50
58929;BMP180;44713;53.378;10.022;2023-04-28T03:50:31;101384.00;;;2.50
58929;BMP180;44713;53.378;10.022;2023-04-28T03:52:57;101381.00;;;2.50
58929;BMP180;44713;53.378;10.022;2023-04-28T03:55:23;101370.00;;;2.50
58929;BMP180;44713;53.378;10.022;2023-04-28T03:57:49;101368.00;;;2.50
58929;BMP180;44713;53.378;10.022;2023-04-28T04:00:16;101362.00;;;2.60
58929;BMP180;44713;53.378;10.022;2023-04-28T04:02:44;101363.00;;;2.60
58929;BMP180;44713;53.378;10.022;2023-04-28T04:05:10;101356.00;;;2.60
58929;BMP180;44713;53.378;10.022;2023-04-28T04:07:36;101360.00;;;2.60
58929;BMP180;44713;53.378;10.022;2023-04-28T04:10:02;101365.00;;;2.60
58929;BMP180;44713;53.378;10.022;2023-04-28T04:12:28;101366.00;;;2.60
58929;BMP180;44713;53.378;10.022;2023-04-28T04:14:55;101356.00;;;2.60
58929;BMP180;44713;53.378;10.022;2023-04-28T04:17:20;101346.00;;;2.70
58929;BMP180;44713;53.378;10.022;2023-04-28T04:19:46;101345.00;;;2.80
58929;BMP180;44713;53.378;10.022;2023-04-28T04:22:11;101345.00;;;2.70
58929;BMP180;44713;53.378;10.022;2023-04-28T04:24:37;101350.00;;;2.80
58929;BMP180;44713;53.378;10.022;2023-04-28T04:27:02;101345.00;;;2.80
58929;BMP180;44713;53.378;10.022;2023-04-28T04:29:33;101346.00;;;2.80
58929;BMP180;44713;53.378;10.022;2023-04-28T04:32:04;101333.00;;;2.90
58929;BMP180;44713;53.378;10.022;2023-04-28T04:34:29;101347.00;;;3.10
58929;BMP180;44713;53.378;10.022;2023-04-28T04:36:55;101336.00;;;3.20
58929;BMP180;44713;53.378;10.022;2023-04-28T04:39:21;101342.00;;;3.20
58929;BMP180;44713;53.378;10.022;2023-04-28T04:41:46;101331.00;;;3.20
58929;BMP180;44713;53.378;10.022;2023-04-28T04:44:30;101336.00;;;3.30
58929;BMP180;44713;53.378;10.022;2023-04-28T04:46:56;101323.00;;;3.20
58929;BMP180;44713;53.378;10.022;2023-04-28T04:49:21;101329.00;;;3.30
58929;BMP180;44713;53.378;10.022;2023-04-28T04:51:47;101333.00;;;3.40
58929;BMP180;44713;53.378;10.022;2023-04-28T04:54:12;101332.00;;;3.50
58929;BMP180;44713;53.378;10.022;2023-04-28T04:56:40;101322.00;;;3.50
58929;BMP180;44713;53.378;10.022;2023-04-28T04:59:07;101323.00;;;3.60
58929;BMP180;44713;53.378;10.022;2023-04-28T05:01:48;101314.00;;;3.60
58929;BMP180;44713;53.378;10.022;2023-04-28T05:04:13;101319.00;;;3.70
58929;BMP180;44713;53.378;10.022;2023-04-28T05:06:39;101311.00;;;3.70
58929;BMP180;44713;53.378;10.022;2023-04-28T05:09:04;101319.00;;;3.80
58929;BMP180;44713;53.378;10.022;2023-04-28T05:11:31;101305.00;;;3.80
58929;BMP180;44713;53.378;10.022;2023-04-28T05:13:56;101314.00;;;3.90
58929;BMP180;44713;53.378;10.022;2023-04-28T05:16:22;101311.00;;;3.90
58929;BMP180;44713;53.378;10.022;2023-04-28T05:19:06;101307.00;;;3.90
58929;BMP180;44713;53.378;10.022;2023-04-28T05:21:35;101310.00;;;4.00
58929;BMP180;44713;53.378;10.022;2023-04-28T05:24:01;101310.00;;;4.00
58929;BMP180;44713;53.378;10.022;2023-04-28T05:26:26;101301.00;;;4.10
58929;BMP180;44713;53.378;10.022;2023-04-28T05:28:56;101294.00;;;4.30
58929;BMP180;44713;53.378;10.022;2023-04-28T05:31:21;101290.00;;;4.30
58929;BMP180;44713;53.378;10.022;2023-04-28T05:33:46;101300.00;;;4.40
58929;BMP180;44713;53.378;10.022;2023-04-28T05:36:12;101297.00;;;4.40
58929;BMP180;44713;53.378;10.022;2023-04-28T05:38:41;101292.00;;;4.40
58929;BMP180;44713;53.378;10.022;2023-04-28T05:41:06;101278.00;;;4.50
58929;BMP180;44713;53.378;10.022;2023-04-28T05:43:31;101280.00;;;4.60
58929;BMP180;44713;53.378;10.022;2023-04-28T05:45:57;101275.00;;;4.80
58929;BMP180;44713;53.378;10.022;2023-04-28T05:48:22;101274.00;;;4.90
58929;BMP180;44713;53.378;10.022;2023-04-28T05:50:48;101271.00;;;5.00
58929;BMP180;44713;53.378;10.022;2023-04-28T05:53:13;101271.00;;;5.20
58929;BMP180;44713;53.378;10.022;2023-04-28T05:55:38;101278.00;;;5.10
58929;BMP180;44713;53.378;10.022;2023-04-28T05:58:04;101276.00;;;5.20
58929;BMP180;44713;53.378;10.022;2023-04-28T06:00:32;101274.00;;;5.20
58929;BMP180;44713;53.378;10.022;2023-04-28T06:02:59;101270.00;;;5.30
58929;BMP180;44713;53.378;10.022;2023-04-28T06:05:25;101264.00;;;5.40
58929;BMP180;44713;53.378;10.022;2023-04-28T06:07:52;101272.00;;;5.50
58929;BMP180;44713;53.378;10.022;2023-04-28T06:10:21;101272.00;;;5.60
58929;BMP180;44713;53.378;10.022;2023-04-28T06:12:47;101264.00;;;5.70
58929;BMP180;44713;53.378;10.022;2023-04-28T06:15:14;101270.00;;;5.70
58929;BMP180;44713;53.378;10.022;2023-04-28T06:17:40;101267.00;;;5.70
58929;BMP180;44713;53.378;10.022;2023-04-28T06:20:06;101259.00;;;5.80
58929;BMP180;44713;53.378;10.022;2023-04-28T06:22:32;101264.00;;;6.00
58929;BMP180;44713;53.378;10.022;2023-04-28T06:24:57;101256.00;;;6.00
58929;BMP180;44713;53.378;10.022;2023-04-28T06:27:30;101259.00;;;6.20
58929;BMP180;44713;53.378;10.022;2023-04-28T06:29:57;101248.00;;;6.40
58929;BMP180;44713;53.378;10.022;2023-04-28T06:32:23;101254.00;;;6.50
58929;BMP180;44713;53.378;10.022;2023-04-28T06:34:48;101249.00;;;6.60
58929;BMP180;44713;53.378;10.022;2023-04-28T06:37:13;101243.00;;;6.70
58929;BMP180;44713;53.378;10.022;2023-04-28T06:39:39;101243.00;;;6.80
58929;BMP180;44713;53.378;10.022;2023-04-28T06:42:05;101239.00;;;6.80
58929;BMP180;44713;53.378;10.022;2023-04-28T06:44:33;101235.00;;;6.90
58929;BMP180;44713;53.378;10.022;2023-04-28T06:46:59;101236.00;;;7.10
58929;BMP180;44713;53.378;10.022;2023-04-28T06:49:24;101230.00;;;7.30
58929;BMP180;44713;53.378;10.022;2023-04-28T06:51:50;101229.00;;;7.40
58929;BMP180;44713;53.378;10.022;2023-04-28T06:54:15;101226.00;;;7.60
58929;BMP180;44713;53.378;10.022;2023-04-28T06:56:42;101226.00;;;7.70
58929;BMP180;44713;53.378;10.022;2023-04-28T06:59:07;101227.00;;;7.80
58929;BMP180;44713;53.378;10.022;2023-04-28T07:01:34;101216.00;;;8.00
58929;BMP180;44713;53.378;10.022;2023-04-28T07:03:59;101212.00;;;8.20
58929;BMP180;44713;53.378;10.022;2023-04-28T07:06:24;101212.00;;;8.30
58929;BMP180;44713;53.378;10.022;2023-04-28T07:08:52;101214.00;;;8.50
58929;BMP180;44713;53.378;10.022;2023-04-28T07:11:17;101211.00;;;8.60
58929;BMP180;44713;53.378;10.022;2023-04-28T07:13:42;101198.00;;;8.70
58929;BMP180;44713;53.378;10.022;2023-04-28T07:16:08;101198.00;;;8.80
58929;BMP180;44713;53.378;10.022;2023-04-28T07:18:35;101199.00;;;9.00
58929;BMP180;44713;53.378;10.022;2023-04-28T07:21:00;101195.00;;;9.10
58929;BMP180;44713;53.378;10.022;2023-04-28T07:23:25;101188.00;;;9.20
58929;BMP180;44713;53.378;10.022;2023-04-28T07:25:51;101189.00;;;9.30
58929;BMP180;44713;53.378;10.022;2023-04-28T07:28:16;101185.00;;;9.30
58929;BMP180;44713;53.378;10.022;2023-04-28T07:30:41;101190.00;;;9.30
58929;BMP180;44713;53.378;10.022;2023-04-28T07:33:07;101187.00;;;9.40
58929;BMP180;44713;53.378;10.022;2023-04-28T07:35:32;101181.00;;;9.50
58929;BMP180;44713;53.378;10.022;2023-04-28T07:37:57;101185.00;;;9.60
58929;BMP180;44713;53.378;10.022;2023-04-28T07:40:23;101184.00;;;9.70
58929;BMP180;44713;53.378;10.022;2023-04-28T07:42:49;101186.00;;;9.80
58929;BMP180;44713;53.378;10.022;2023-04-28T07:45:14;101180.00;;;9.90
58929;BMP180;44713;53.378;10.022;2023-04-28T07:47:42;101184.00;;;10.00
58929;BMP180;44713;53.378;10.022;2023-04-28T07:50:08;101176.00;;;10.20
58929;BMP180;44713;53.378;10.022;2023-04-28T07:52:34;101179.00;;;10.40
58929;BMP180;44713;53.378;10.022;2023-04-28T07:54:59;101176.00;;;10.40
58929;BMP180;44713;53.378;10.022;2023-04-28T07:57:26;101179.00;;;10.50
58929;BMP180;44713;53.378;10.022;2023-04-28T07:59:53;101166.00;;;10.70
58929;BMP180;44713;53.378;10.022;2023-04-28T08:02:18;101167.00;;;11.00
58929;BMP180;44713;53.378;10.022;2023-04-28T08:04:45;101164.00;;;11.20
58929;BMP180;44713;53.378;10.022;2023-04-28T08:07:10;101157.00;;;11.40
58929;BMP180;44713;53.378;10.022;2023-04-28T08:09:36;101159.00;;;11.60
58929;BMP180;44713;53.378;10.022;2023-04-28T08:12:01;101144.00;;;11.60
58929;BMP180;44713;53.378;10.022;2023-04-28T08:14:27;101141.00;;;11.70
58929;BMP180;44713;53.378;10.022;2023-04-28T08:16:52;101145.00;;;11.80
58929;BMP180;44713;53.378;10.022;2023-04-28T08:19:19;101142.00;;;12.10
58929;BMP180;44713;53.378;10.022;2023-04-28T08:21:44;101138.00;;;12.10
58929;BMP180;44713;53.378;10.022;2023-04-28T08:24:15;101136.00;;;12.10
58929;BMP180;44713;53.378;10.022;2023-04-28T08:26:41;101139.00;;;12.30
58929;BMP180;44713;53.378;10.022;2023-04-28T08:29:06;101140.00;;;12.40
58929;BMP180;44713;53.378;10.022;2023-04-28T08:31:31;101144.00;;;12.40
58929;BMP180;44713;53.378;10.022;2023-04-28T08:34:13;101143.00;;;12.40
58929;BMP180;44713;53.378;10.022;2023-04-28T08:36:41;101139.00;;;12.50
58929;BMP180;44713;53.378;10.022;2023-04-28T08:39:07;101138.00;;;12.60
58929;BMP180;44713;53.378;10.022;2023-04-28T08:41:37;101141.00;;;12.70
58929;BMP180;44713;53.378;10.022;2023-04-28T08:44:10;101150.00;;;12.90
58929;BMP180;44713;53.378;10.022;2023-04-28T08:46:39;101138.00;;;13.00
58929;BMP180;44713;53.378;10.022;2023-04-28T08:49:06;101147.00;;;13.10
58929;BMP180;44713;53.378;10.022;2023-04-28T08:51:40;101151.00;;;13.20
58929;BMP180;44713;53.378;10.022;2023-04-28T08:54:09;101141.00;;;13.30
58929;BMP180;44713;53.378;10.022;2023-04-28T08:56:36;101144.00;;;13.20
58929;BMP180;44713;53.378;10.022;2023-04-28T08:59:03;101134.00;;;13.30
58929;BMP180;44713;53.378;10.022;2023-04-28T09:01:32;101126.00;;;13.40
58929;BMP180;44713;53.378;10.022;2023-04-28T09:04:00;101139.00;;;13.50
58929;BMP180;44713;53.378;10.022;2023-04-28T09:06:31;101115.00;;;13.60
58929;BMP180;44713;53.378;10.022;2023-04-28T09:09:17;101127.00;;;13.70
58929;BMP180;44713;53.378;10.022;2023-04-28T09:12:00;101126.00;;;13.80
58929;BMP180;44713;53.378;10.022;2023-04-28T09:14:27;101121.00;;;13.90
58929;BMP180;44713;53.378;10.022;2023-04-28T09:16:53;101124.00;;;13.90
58929;BMP180;44713;53.378;10.022;2023-04-28T09:19:19;101119.00;;;13.90
58929;BMP180;44713;53.378;10.022;2023-04-28T09:21:55;101118.00;;;14.00
58929;BMP180;44713;53.378;10.022;2023-04-28T09:24:31;101125.00;;;14.00
58929;BMP180;44713;53.378;10.022;2023-04-28T09:26:58;101122.00;;;14.10
58929;BMP180;44713;53.378;10.022;2023-04-28T09:29:24;101116.00;;;14.10
58929;BMP180;44713;53.378;10.022;2023-04-28T09:31:49;101115.00;;;14.20
58929;BMP180;44713;53.378;10.022;2023-04-28T09:34:15;101116.00;;;14.30
58929;BMP180;44713;53.378;10.022;2023-04-28T09:36:40;101111.00;;;14.50
58929;BMP180;44713;53.378;10.022;2023-04-28T09:39:06;101108.00;;;14.70
58929;BMP180;44713;53.378;10.022;2023-04-28T09:41:39;101118.00;;;14.90
58929;BMP180;44713;53.378;10.022;2023-04-28T09:44:15;101107.00;;;15.00
58929;BMP180;44713;53.378;10.022;2023-04-28T09:46:42;101104.00;;;15.10
58929;BMP180;44713;53.378;10.022;2023-04-28T09:49:09;101099.00;;;15.20
58929;BMP180;44713;53.378;10.022;2023-04-28T09:51:34;101088.00;;;15.20
58929;BMP180;44713;53.378;10.022;2023-04-28T09:54:00;101087.00;;;15.20
58929;BMP180;44713;53.378;10.022;2023-04-28T09:56:31;101085.00;;;15.20
58929;BMP180;44713;53.378;10.022;2023-04-28T09:59:00;101082.00;;;15.30
58929;BMP180;44713;53.378;10.022;2023-04-28T10:01:27;101065.00;;;15.30
58929;BMP180;44713;53.378;10.022;2023-04-28T10:03:53;101073.00;;;15.40
58929;BMP180;44713;53.378;10.022;2023-04-28T10:06:19;101069.00;;;15.40
58929;BMP180;44713;53.378;10.022;2023-04-28T10:08:45;101062.00;;;15.30
58929;BMP180;44713;53.378;10.022;2023-04-28T10:11:13;101064.00;;;15.30
58929;BMP180;44713;53.378;10.022;2023-04-28T10:13:41;101066.00;;;15.20
58929;BMP180;44713;53.378;10.022;2023-04-28T10:16:07;101061.00;;;15.20
58929;BMP180;44713;53.378;10.022;2023-04-28T10:18:34;101051.00;;;15.30
58929;BMP180;44713;53.378;10.022;2023-04-28T10:21:02;101051.00;;;15.30
58929;BMP180;44713;53.378;10.022;2023-04-28T10:26:22;101045.00;;;15.20
58929;BMP180;44713;53.378;10.022;2023-04-28T10:28:51;101039.00;;;15.30
58929;BMP180;44713;53.378;10.022;2023-04-28T10:31:18;101039.00;;;15.50
58929;BMP180;44713;53.378;10.022;2023-04-28T10:33:48;101044.00;;;15.60
58929;BMP180;44713;53.378;10.022;2023-04-28T10:36:46;101042.00;;;15.80
58929;BMP180;44713;53.378;10.022;2023-04-28T10:39:11;101035.00;;;16.20
58929;BMP180;44713;53.378;10.022;2023-04-28T10:41:37;101040.00;;;16.40
58929;BMP180;44713;53.378;10.022;2023-04-28T10:47:00;101047.00;;;16.50
58929;BMP180;44713;53.378;10.022;2023-04-28T10:50:09;101042.00;;;16.40
58929;BMP180;44713;53.378;10.022;2023-04-28T10:55:32;101026.00;;;16.30
58929;BMP180;44713;53.378;10.022;2023-04-28T11:00:42;101021.00;;;16.80
58929;BMP180;44713;53.378;10.022;2023-04-28T11:03:48;101031.00;;;16.70
58929;BMP180;44713;53.378;10.022;2023-04-28T11:11:34;101019.00;;;16.70
58929;BMP180;44713;53.378;10.022;2023-04-28T11:19:23;101015.00;;;17.20
58929;BMP180;44713;53.378;10.022;2023-04-28T11:21:51;101014.00;;;17.20
58929;BMP180;44713;53.378;10.022;2023-04-28T11:24:17;101020.00;;;17.20
58929;BMP180;44713;53.378;10.022;2023-04-28T11:26:43;101013.00;;;17.10
58929;BMP180;44713;53.378;10.022;2023-04-28T11:29:09;100997.00;;;16.90
58929;BMP180;44713;53.378;10.022;2023-04-28T11:31:35;100999.00;;;17.00
58929;BMP180;44713;53.378;10.022;2023-04-28T11:34:10;101001.00;;;17.00
58929;BMP180;44713;53.378;10.022;2023-04-28T11:36:37;101000.00;;;16.90
58929;BMP180;44713;53.378;10.022;2023-04-28T11:39:08;101000.00;;;17.10
58929;BMP180;44713;53.378;10.022;2023-04-28T11:41:35;101001.00;;;17.10
58929;BMP180;44713;53.378;10.022;2023-04-28T11:44:15;100994.00;;;17.00
58929;BMP180;44713;53.378;10.022;2023-04-28T11:46:48;100994.00;;;17.10
58929;BMP180;44713;53.378;10.022;2023-04-28T11:49:41;100994.00;;;17.30
58929;BMP180;44713;53.378;10.022;2023-04-28T11:52:07;100985.00;;;17.30
58929;BMP180;44713;53.378;10.022;2023-04-28T11:54:33;100990.00;;;17.20
58929;BMP180;44713;53.378;10.022;2023-04-28T12:00:13;100989.00;;;17.00
58929;BMP180;44713;53.378;10.022;2023-04-28T12:02:43;100979.00;;;17.00
58929;BMP180;44713;53.378;10.022;2023-04-28T12:05:09;100983.00;;;17.10
58929;BMP180;44713;53.378;10.022;2023-04-28T12:07:42;100984.00;;;17.00
58929;BMP180;44713;53.378;10.022;2023-04-28T12:10:13;100978.00;;;17.00
58929;BMP180;44713;53.378;10.022;2023-04-28T12:12:40;100977.00;;;17.10
58929;BMP180;44713;53.378;10.022;2023-04-28T12:15:07;100970.00;;;17.10
58929;BMP180;44713;53.378;10.022;2023-04-28T12:17:41;100960.00;;;17.10
58929;BMP180;44713;53.378;10.022;2023-04-28T12:20:11;100960.00;;;17.30
58929;BMP180;44713;53.378;10.022;2023-04-28T12:22:56;100950.00;;;17.40
58929;BMP180;44713;53.378;10.022;2023-04-28T12:25:21;100955.00;;;17.50
58929;BMP180;44713;53.378;10.022;2023-04-28T12:28:06;100940.00;;;17.50
58929;BMP180;44713;53.378;10.022;2023-04-28T12:30:36;100946.00;;;17.60
58929;BMP180;44713;53.378;10.022;2023-04-28T12:33:21;100942.00;;;17.60
58929;BMP180;44713;53.378;10.022;2023-04-28T12:35:47;100934.00;;;17.70
58929;BMP180;44713;53.378;10.022;2023-04-28T12:38:14;100939.00;;;17.80
58929;BMP180;44713;53.378;10.022;2023-04-28T12:40:40;100920.00;;;17.70
58929;BMP180;44713;53.378;10.022;2023-04-28T12:43:05;100926.00;;;17.80
58929;BMP180;44713;53.378;10.022;2023-04-28T12:45:31;100923.00;;;17.80
58929;BMP180;44713;53.378;10.022;2023-04-28T12:47:56;100933.00;;;17.70
58929;BMP180;44713;53.378;10.022;2023-04-28T12:50:22;100928.00;;;17.80
58929;BMP180;44713;53.378;10.022;2023-04-28T12:52:48;100925.00;;;17.70
58929;BMP180;44713;53.378;10.022;2023-04-28T12:55:13;100937.00;;;17.70
58929;BMP180;44713;53.378;10.022;2023-04-28T12:57:39;100935.00;;;17.80
58929;BMP180;44713;53.378;10.022;2023-04-28T13:00:05;100923.00;;;17.60
58929;BMP180;44713;53.378;10.022;2023-04-28T13:02:31;100926.00;;;17.70
58929;BMP180;44713;53.378;10.022;2023-04-28T13:04:56;100915.00;;;17.60
58929;BMP180;44713;53.378;10.022;2023-04-28T13:07:22;100917.00;;;17.70
58929;BMP180;44713;53.378;10.022;2023-04-28T13:09:47;100909.00;;;17.80
58929;BMP180;44713;53.378;10.022;2023-04-28T13:12:13;100899.00;;;17.70
58929;BMP180;44713;53.378;10.022;2023-04-28T13:14:38;100909.00;;;17.70
58929;BMP180;44713;53.378;10.022;2023-04-28T13:17:04;100906.00;;;17.70
58929;BMP180;44713;53.378;10.022;2023-04-28T13:19:30;100910.00;;;17.80
58929;BMP180;44713;53.378;10.022;2023-04-28T13:21:57;100911.00;;;17.90
58929;BMP180;44713;53.378;10.022;2023-04-28T13:24:23;100916.00;;;18.00
58929;BMP180;44713;53.378;10.022;2023-04-28T13:26:48;100912.00;;;17.90
58929;BMP180;44713;53.378;10.022;2023-04-28T13:29:14;100907.00;;;17.80
58929;BMP180;44713;53.378;10.022;2023-04-28T13:31:39;100903.00;;;17.60
58929;BMP180;44713;53.378;10.022;2023-04-28T13:34:05;100910.00;;;17.60
58929;BMP180;44713;53.378;10.022;2023-04-28T13:36:32;100893.00;;;17.40
58929;BMP180;44713;53.378;10.022;2023-04-28T13:38:58;100902.00;;;17.40
58929;BMP180;44713;53.378;10.022;2023-04-28T13:41:24;100891.00;;;17.40
58929;BMP180;44713;53.378;10.022;2023-04-28T13:43:51;100884.00;;;17.30
58929;BMP180;44713;53.378;10.022;2023-04-28T13:46:16;100881.00;;;17.40
58929;BMP180;44713;53.378;10.022;2023-04-28T13:48:42;100874.00;;;17.60
58929;BMP180;44713;53.378;10.022;2023-04-28T13:51:11;100863.00;;;17.70
58929;BMP180;44713;53.378;10.022;2023-04-28T13:53:36;100864.00;;;17.60
58929;BMP180;44713;53.378;10.022;2023-04-28T13:56:03;100870.00;;;17.60
58929;BMP180;44713;53.378;10.022;2023-04-28T13:58:29;100868.00;;;17.40
58929;BMP180;44713;53.378;10.022;2023-04-28T14:00:55;100875.00;;;17.20
58929;BMP180;44713;53.378;10.022;2023-04-28T14:03:21;100859.00;;;17.10
58929;BMP180;44713;53.378;10.022;2023-04-28T14:05:51;100855.00;;;17.10
58929;BMP180;44713;53.378;10.022;2023-04-28T14:08:17;100865.00;;;17.00
58929;BMP180;44713;53.378;10.022;2023-04-28T14:10:42;100866.00;;;17.00
58929;BMP180;44713;53.378;10.022;2023-04-28T14:13:08;100857.00;;;17.10
58929;BMP180;44713;53.378;10.022;2023-04-28T14:15:34;100862.00;;;17.10
58929;BMP180;44713;53.378;10.022;2023-04-28T14:17:59;100858.00;;;17.10